sensor_id;sensor_type;location;lat;lon;timestamp;P1;durP1;ratioP1;P2;durP2;ratioP2
68140;SDS011;54941;52.220;104.306;2022-09-01T00:00:21;3.30;;;1.67;;
68140;SDS011;54941;52.220;104.306;2022-09-01T00:03:07;5.22;;;1.48;;
68140;SDS011;54941;52.220;104.306;2022-09-01T00:05:54;2.45;;;1.60;;
68140;SDS011;54941;52.220;104.306;2022-09-01T00:08:39;4.68;;;1.73;;
68140;SDS011;54941;52.220;104.306;2022-09-01T00:11:25;3.28;;;1.85;;
68140;SDS011;54941;52.220;104.306;2022-09-01T00:14:10;4.50;;;2.30;;
68140;SDS011;54941;52.220;104.306;2022-09-01T00:16:56;6.35;;;2.20;;
68140;SDS011;54941;52.220;104.306;2022-09-01T00:19:42;5.50;;;2.15;;
68140;SDS011;54941;52.220;104.306;2022-09-01T00:22:28;5.55;;;2.20;;
68140;SDS011;54941;52.220;104.306;2022-09-01T00:25:14;6.78;;;2.42;;
68140;SDS011;54941;52.220;104.306;2022-09-01T00:27:58;5.88;;;2.38;;
68140;SDS011;54941;52.220;104.306;2022-09-01T00:30:44;7.90;;;3.05;;
68140;SDS011;54941;52.220;104.306;2022-09-01T00:33:29;7.25;;;2.92;;
68140;SDS011;54941;52.220;104.306;2022-09-01T00:36:14;5.28;;;2.58;;
68140;SDS011;54941;52.220;104.306;2022-09-01T00:39:03;4.75;;;2.42;;
68140;SDS011;54941;52.220;104.306;2022-09-01T00:41:50;5.40;;;2.38;;
68140;SDS011;54941;52.220;104.306;2022-09-01T00:44:35;5.53;;;2.40;;
68140;SDS011;54941;52.220;104.306;2022-09-01T00:47:20;4.95;;;2.38;;
68140;SDS011;54941;52.220;104.306;2022-09-01T00:50:06;4.03;;;2.53;;
68140;SDS011;54941;52.220;104.306;2022-09-01T00:52:52;4.47;;;2.65;;
68140;SDS011;54941;52.220;104.306;2022-09-01T00:55:40;6.53;;;2.65;;
68140;SDS011;54941;52.220;104.306;2022-09-01T00:58:25;4.28;;;2.20;;
68140;SDS011;54941;52.220;104.306;2022-09-01T01:01:10;4.30;;;2.22;;
68140;SDS011;54941;52.220;104.306;2022-09-01T01:03:56;4.45;;;2.03;;
68140;SDS011;54941;52.220;104.306;2022-09-01T01:06:41;3.83;;;2.20;;
68140;SDS011;54941;52.220;104.306;2022-09-01T01:09:28;4.38;;;2.15;;
68140;SDS011;54941;52.220;104.306;2022-09-01T01:12:17;5.47;;;3.55;;
68140;SDS011;54941;52.220;104.306;2022-09-01T01:15:04;3.05;;;1.90;;
68140;SDS011;54941;52.220;104.306;2022-09-01T01:17:50;4.82;;;2.25;;
68140;SDS011;54941;52.220;104.306;2022-09-01T01:20:35;3.08;;;1.85;;
68140;SDS011;54941;52.220;104.306;2022-09-01T01:23:23;5.22;;;4.35;;
68140;SDS011;54941;52.220;104.306;2022-09-01T01:26:13;3.28;;;1.77;;
68140;SDS011;54941;52.220;104.306;2022-09-01T01:28:59;3.53;;;1.80;;
68140;SDS011;54941;52.220;104.306;2022-09-01T01:31:44;3.30;;;1.98;;
68140;SDS011;54941;52.220;104.306;2022-09-01T01:34:30;2.70;;;1.90;;
68140;SDS011;54941;52.220;104.306;2022-09-01T01:37:15;3.72;;;1.90;;
68140;SDS011;54941;52.220;104.306;2022-09-01T01:40:00;5.45;;;2.30;;
68140;SDS011;54941;52.220;104.306;2022-09-01T01:42:50;5.18;;;2.15;;
68140;SDS011;54941;52.220;104.306;2022-09-01T01:45:36;4.00;;;2.38;;
68140;SDS011;54941;52.220;104.306;2022-09-01T01:48:21;5.20;;;4.07;;
68140;SDS011;54941;52.220;104.306;2022-09-01T01:51:07;3.95;;;2.53;;
68140;SDS011;54941;52.220;104.306;2022-09-01T01:53:53;6.07;;;2.75;;
68140;SDS011;54941;52.220;104.306;2022-09-01T01:56:38;5.00;;;2.75;;
68140;SDS011;54941;52.220;104.306;2022-09-01T01:59:25;7.72;;;2.67;;
68140;SDS011;54941;52.220;104.306;2022-09-01T02:02:10;6.57;;;3.60;;
68140;SDS011;54941;52.220;104.306;2022-09-01T02:04:55;5.22;;;2.83;;
68140;SDS011;54941;52.220;104.306;2022-09-01T02:07:40;4.45;;;3.05;;
68140;SDS011;54941;52.220;104.306;2022-09-01T02:10:26;4.75;;;2.70;;
68140;SDS011;54941;52.220;104.306;2022-09-01T02:13:14;4.97;;;2.90;;
68140;SDS011;54941;52.220;104.306;2022-09-01T02:16:03;4.13;;;3.50;;
68140;SDS011;54941;52.220;104.306;2022-09-01T02:18:50;7.25;;;3.42;;
68140;SDS011;54941;52.220;104.306;2022-09-01T02:21:35;8.35;;;3.70;;
68140;SDS011;54941;52.220;104.306;2022-09-01T02:24:22;6.40;;;3.28;;
68140;SDS011;54941;52.220;104.306;2022-09-01T02:27:07;5.85;;;3.38;;
68140;SDS011;54941;52.220;104.306;2022-09-01T02:29:52;6.30;;;4.22;;
68140;SDS011;54941;52.220;104.306;2022-09-01T02:32:38;6.20;;;4.10;;
68140;SDS011;54941;52.220;104.306;2022-09-01T02:35:24;5.65;;;4.20;;
68140;SDS011;54941;52.220;104.306;2022-09-01T02:38:09;8.25;;;5.68;;
68140;SDS011;54941;52.220;104.306;2022-09-01T02:40:55;5.97;;;4.28;;
68140;SDS011;54941;52.220;104.306;2022-09-01T02:43:41;6.15;;;4.30;;
68140;SDS011;54941;52.220;104.306;2022-09-01T02:46:26;7.88;;;4.68;;
68140;SDS011;54941;52.220;104.306;2022-09-01T02:49:13;7.78;;;5.18;;
68140;SDS011;54941;52.220;104.306;2022-09-01T02:52:00;9.05;;;6.10;;
68140;SDS011;54941;52.220;104.306;2022-09-01T02:54:46;7.70;;;5.78;;
68140;SDS011;54941;52.220;104.306;2022-09-01T02:57:31;7.80;;;5.70;;
68140;SDS011;54941;52.220;104.306;2022-09-01T03:00:16;10.35;;;5.95;;
68140;SDS011;54941;52.220;104.306;2022-09-01T03:03:02;8.43;;;6.40;;
68140;SDS011;54941;52.220;104.306;2022-09-01T03:05:49;7.05;;;5.50;;
68140;SDS011;54941;52.220;104.306;2022-09-01T03:08:34;9.48;;;5.57;;
68140;SDS011;54941;52.220;104.306;2022-09-01T03:11:20;7.38;;;6.22;;
68140;SDS011;54941;52.220;104.306;2022-09-01T03:14:06;6.88;;;5.30;;
68140;SDS011;54941;52.220;104.306;2022-09-01T03:16:51;7.78;;;5.65;;
68140;SDS011;54941;52.220;104.306;2022-09-01T03:19:36;9.35;;;4.13;;
68140;SDS011;54941;52.220;104.306;2022-09-01T03:22:22;7.25;;;4.80;;
68140;SDS011;54941;52.220;104.306;2022-09-01T03:25:07;6.47;;;4.30;;
68140;SDS011;54941;52.220;104.306;2022-09-01T03:27:55;14.68;;;8.27;;
68140;SDS011;54941;52.220;104.306;2022-09-01T03:30:43;13.88;;;7.88;;
68140;SDS011;54941;52.220;104.306;2022-09-01T03:33:30;10.90;;;7.95;;
68140;SDS011;54941;52.220;104.306;2022-09-01T03:36:15;12.77;;;9.23;;
68140;SDS011;54941;52.220;104.306;2022-09-01T03:39:02;12.15;;;8.13;;
68140;SDS011;54941;52.220;104.306;2022-09-01T03:44:31;9.90;;;6.97;;
68140;SDS011;54941;52.220;104.306;2022-09-01T03:47:16;10.20;;;7.28;;
68140;SDS011;54941;52.220;104.306;2022-09-01T03:50:01;9.63;;;5.80;;
68140;SDS011;54941;52.220;104.306;2022-09-01T03:52:48;7.78;;;5.10;;
68140;SDS011;54941;52.220;104.306;2022-09-01T03:55:36;6.93;;;4.78;;
68140;SDS011;54941;52.220;104.306;2022-09-01T03:58:22;9.27;;;5.53;;
68140;SDS011;54941;52.220;104.306;2022-09-01T04:01:10;9.70;;;5.90;;
68140;SDS011;54941;52.220;104.306;2022-09-01T04:03:55;6.80;;;4.97;;
68140;SDS011;54941;52.220;104.306;2022-09-01T04:06:41;8.48;;;5.60;;
68140;SDS011;54941;52.220;104.306;2022-09-01T04:09:27;7.35;;;5.65;;
68140;SDS011;54941;52.220;104.306;2022-09-01T04:12:14;9.27;;;5.45;;
68140;SDS011;54941;52.220;104.306;2022-09-01T04:15:02;11.27;;;5.75;;
68140;SDS011;54941;52.220;104.306;2022-09-01T04:17:47;8.82;;;5.30;;
68140;SDS011;54941;52.220;104.306;2022-09-01T04:20:32;11.82;;;6.75;;
68140;SDS011;54941;52.220;104.306;2022-09-01T04:23:18;8.85;;;6.00;;
68140;SDS011;54941;52.220;104.306;2022-09-01T04:26:05;8.45;;;6.22;;
68140;SDS011;54941;52.220;104.306;2022-09-01T04:28:53;11.07;;;6.45;;
68140;SDS011;54941;52.220;104.306;2022-09-01T04:34:22;8.18;;;5.38;;
68140;SDS011;54941;52.220;104.306;2022-09-01T04:37:09;9.07;;;6.95;;
68140;SDS011;54941;52.220;104.306;2022-09-01T04:39:55;10.32;;;6.25;;
68140;SDS011;54941;52.220;104.306;2022-09-01T04:42:40;8.20;;;6.40;;
68140;SDS011;54941;52.220;104.306;2022-09-01T04:45:27;9.90;;;7.35;;
68140;SDS011;54941;52.220;104.306;2022-09-01T04:50:56;12.43;;;7.85;;
68140;SDS011;54941;52.220;104.306;2022-09-01T04:53:41;12.23;;;7.35;;
68140;SDS011;54941;52.220;104.306;2022-09-01T04:56:26;8.77;;;6.22;;
68140;SDS011;54941;52.220;104.306;2022-09-01T04:59:11;10.27;;;6.00;;
68140;SDS011;54941;52.220;104.306;2022-09-01T05:01:59;12.20;;;6.55;;
68140;SDS011;54941;52.220;104.306;2022-09-01T05:04:44;8.05;;;6.18;;
68140;SDS011;54941;52.220;104.306;2022-09-01T05:07:29;10.20;;;6.03;;
68140;SDS011;54941;52.220;104.306;2022-09-01T05:10:14;11.48;;;6.78;;
68140;SDS011;54941;52.220;104.306;2022-09-01T05:12:59;12.02;;;7.47;;
68140;SDS011;54941;52.220;104.306;2022-09-01T05:15:44;11.80;;;6.30;;
68140;SDS011;54941;52.220;104.306;2022-09-01T05:18:32;10.05;;;7.47;;
68140;SDS011;54941;52.220;104.306;2022-09-01T05:21:18;14.65;;;8.30;;
68140;SDS011;54941;52.220;104.306;2022-09-01T05:24:04;11.82;;;7.93;;
68140;SDS011;54941;52.220;104.306;2022-09-01T05:26:49;13.38;;;8.30;;
68140;SDS011;54941;52.220;104.306;2022-09-01T05:29:34;12.68;;;7.22;;
68140;SDS011;54941;52.220;104.306;2022-09-01T05:32:20;11.90;;;7.38;;
68140;SDS011;54941;52.220;104.306;2022-09-01T05:35:07;14.10;;;7.55;;
68140;SDS011;54941;52.220;104.306;2022-09-01T05:37:52;11.48;;;7.57;;
68140;SDS011;54941;52.220;104.306;2022-09-01T05:40:38;11.00;;;6.25;;
68140;SDS011;54941;52.220;104.306;2022-09-01T05:43:23;13.73;;;7.10;;
68140;SDS011;54941;52.220;104.306;2022-09-01T05:46:08;10.30;;;7.57;;
68140;SDS011;54941;52.220;104.306;2022-09-01T05:48:54;10.18;;;7.00;;
68140;SDS011;54941;52.220;104.306;2022-09-01T05:51:42;10.82;;;7.50;;
68140;SDS011;54941;52.220;104.306;2022-09-01T05:54:28;11.30;;;6.72;;
68140;SDS011;54941;52.220;104.306;2022-09-01T05:57:13;9.75;;;7.30;;
68140;SDS011;54941;52.220;104.306;2022-09-01T05:59:58;10.95;;;8.02;;
68140;SDS011;54941;52.220;104.306;2022-09-01T06:02:44;9.68;;;7.38;;
68140;SDS011;54941;52.220;104.306;2022-09-01T06:05:29;12.73;;;8.57;;
68140;SDS011;54941;52.220;104.306;2022-09-01T06:08:15;13.77;;;7.05;;
68140;SDS011;54941;52.220;104.306;2022-09-01T06:11:00;11.02;;;8.05;;
68140;SDS011;54941;52.220;104.306;2022-09-01T06:13:45;10.07;;;7.82;;
68140;SDS011;54941;52.220;104.306;2022-09-01T06:16:30;13.45;;;8.23;;
68140;SDS011;54941;52.220;104.306;2022-09-01T06:19:15;13.93;;;7.68;;
68140;SDS011;54941;52.220;104.306;2022-09-01T06:22:00;14.10;;;8.10;;
68140;SDS011;54941;52.220;104.306;2022-09-01T06:24:47;12.13;;;9.23;;
68140;SDS011;54941;52.220;104.306;2022-09-01T06:27:32;12.05;;;7.68;;
68140;SDS011;54941;52.220;104.306;2022-09-01T06:30:18;12.43;;;8.13;;
68140;SDS011;54941;52.220;104.306;2022-09-01T06:33:03;11.05;;;7.40;;
68140;SDS011;54941;52.220;104.306;2022-09-01T06:35:48;10.25;;;6.93;;
68140;SDS011;54941;52.220;104.306;2022-09-01T06:38:33;11.18;;;6.70;;
68140;SDS011;54941;52.220;104.306;2022-09-01T06:41:19;10.40;;;6.85;;
68140;SDS011;54941;52.220;104.306;2022-09-01T06:44:05;14.23;;;8.52;;
68140;SDS011;54941;52.220;104.306;2022-09-01T06:46:50;9.38;;;6.28;;
68140;SDS011;54941;52.220;104.306;2022-09-01T06:49:36;13.13;;;7.18;;
68140;SDS011;54941;52.220;104.306;2022-09-01T06:52:21;9.63;;;6.53;;
68140;SDS011;54941;52.220;104.306;2022-09-01T06:55:06;13.18;;;7.53;;
68140;SDS011;54941;52.220;104.306;2022-09-01T06:57:54;10.95;;;6.80;;
68140;SDS011;54941;52.220;104.306;2022-09-01T07:00:39;11.88;;;7.93;;
68140;SDS011;54941;52.220;104.306;2022-09-01T07:03:25;12.15;;;8.38;;
68140;SDS011;54941;52.220;104.306;2022-09-01T07:06:10;11.77;;;7.63;;
68140;SDS011;54941;52.220;104.306;2022-09-01T07:08:55;10.20;;;7.57;;
68140;SDS011;54941;52.220;104.306;2022-09-01T07:11:41;10.30;;;6.60;;
68140;SDS011;54941;52.220;104.306;2022-09-01T07:14:28;11.23;;;7.07;;
68140;SDS011;54941;52.220;104.306;2022-09-01T07:17:13;13.82;;;8.10;;
68140;SDS011;54941;52.220;104.306;2022-09-01T07:19:58;10.20;;;7.15;;
68140;SDS011;54941;52.220;104.306;2022-09-01T07:22:43;10.25;;;7.50;;
68140;SDS011;54941;52.220;104.306;2022-09-01T07:25:28;10.98;;;6.85;;
68140;SDS011;54941;52.220;104.306;2022-09-01T07:28:13;12.30;;;6.85;;
68140;SDS011;54941;52.220;104.306;2022-09-01T07:31:01;11.40;;;8.38;;
68140;SDS011;54941;52.220;104.306;2022-09-01T07:33:46;10.57;;;7.28;;
68140;SDS011;54941;52.220;104.306;2022-09-01T07:36:31;10.95;;;7.28;;
68140;SDS011;54941;52.220;104.306;2022-09-01T07:39:16;9.65;;;6.88;;
68140;SDS011;54941;52.220;104.306;2022-09-01T07:42:01;11.23;;;8.50;;
68140;SDS011;54941;52.220;104.306;2022-09-01T07:44:46;11.90;;;7.82;;
68140;SDS011;54941;52.220;104.306;2022-09-01T07:47:33;11.88;;;7.35;;
68140;SDS011;54941;52.220;104.306;2022-09-01T07:50:18;12.35;;;7.00;;
68140;SDS011;54941;52.220;104.306;2022-09-01T07:53:03;9.43;;;6.75;;
68140;SDS011;54941;52.220;104.306;2022-09-01T07:55:48;14.30;;;8.85;;
68140;SDS011;54941;52.220;104.306;2022-09-01T07:58:37;11.60;;;7.65;;
68140;SDS011;54941;52.220;104.306;2022-09-01T08:01:23;10.85;;;6.65;;
68140;SDS011;54941;52.220;104.306;2022-09-01T08:04:11;10.60;;;7.05;;
68140;SDS011;54941;52.220;104.306;2022-09-01T08:06:56;13.27;;;7.47;;
68140;SDS011;54941;52.220;104.306;2022-09-01T08:09:44;9.93;;;6.60;;
68140;SDS011;54941;52.220;104.306;2022-09-01T08:12:29;10.52;;;7.15;;
68140;SDS011;54941;52.220;104.306;2022-09-01T08:15:14;9.25;;;6.45;;
68140;SDS011;54941;52.220;104.306;2022-09-01T08:18:02;7.85;;;6.30;;
68140;SDS011;54941;52.220;104.306;2022-09-01T08:20:49;9.60;;;7.50;;
68140;SDS011;54941;52.220;104.306;2022-09-01T08:23:34;8.88;;;6.30;;
68140;SDS011;54941;52.220;104.306;2022-09-01T08:26:20;13.90;;;7.18;;
68140;SDS011;54941;52.220;104.306;2022-09-01T08:29:07;10.55;;;6.70;;
68140;SDS011;54941;52.220;104.306;2022-09-01T08:31:52;9.25;;;7.20;;
68140;SDS011;54941;52.220;104.306;2022-09-01T08:34:36;9.93;;;6.55;;
68140;SDS011;54941;52.220;104.306;2022-09-01T08:37:23;9.73;;;6.68;;
68140;SDS011;54941;52.220;104.306;2022-09-01T08:40:10;9.13;;;6.65;;
68140;SDS011;54941;52.220;104.306;2022-09-01T08:42:59;8.73;;;6.80;;
68140;SDS011;54941;52.220;104.306;2022-09-01T08:45:54;8.63;;;6.28;;
68140;SDS011;54941;52.220;104.306;2022-09-01T08:48:41;9.52;;;5.95;;
68140;SDS011;54941;52.220;104.306;2022-09-01T08:51:31;10.00;;;6.40;;
68140;SDS011;54941;52.220;104.306;2022-09-01T08:54:25;9.80;;;6.28;;
68140;SDS011;54941;52.220;104.306;2022-09-01T08:57:19;7.15;;;5.43;;
68140;SDS011;54941;52.220;104.306;2022-09-01T09:00:07;10.35;;;6.32;;
68140;SDS011;54941;52.220;104.306;2022-09-01T09:02:58;10.63;;;6.97;;
68140;SDS011;54941;52.220;104.306;2022-09-01T09:05:58;12.27;;;7.22;;
68140;SDS011;54941;52.220;104.306;2022-09-01T09:08:55;10.32;;;7.97;;
68140;SDS011;54941;52.220;104.306;2022-09-01T09:11:48;9.60;;;6.40;;
68140;SDS011;54941;52.220;104.306;2022-09-01T09:14:56;8.80;;;7.60;;
68140;SDS011;54941;52.220;104.306;2022-09-01T09:17:58;12.82;;;7.95;;
68140;SDS011;54941;52.220;104.306;2022-09-01T09:20:52;12.15;;;8.48;;
68140;SDS011;54941;52.220;104.306;2022-09-01T09:23:38;13.43;;;8.85;;
68140;SDS011;54941;52.220;104.306;2022-09-01T09:26:29;12.85;;;9.40;;
68140;SDS011;54941;52.220;104.306;2022-09-01T09:29:15;11.80;;;8.95;;
68140;SDS011;54941;52.220;104.306;2022-09-01T09:32:02;9.10;;;6.50;;
68140;SDS011;54941;52.220;104.306;2022-09-01T09:34:49;11.93;;;7.75;;
68140;SDS011;54941;52.220;104.306;2022-09-01T09:37:34;10.82;;;6.75;;
68140;SDS011;54941;52.220;104.306;2022-09-01T09:40:20;10.05;;;7.47;;
68140;SDS011;54941;52.220;104.306;2022-09-01T09:43:06;13.18;;;8.05;;
68140;SDS011;54941;52.220;104.306;2022-09-01T09:45:52;10.90;;;7.63;;
68140;SDS011;54941;52.220;104.306;2022-09-01T09:49:11;12.43;;;8.75;;
68140;SDS011;54941;52.220;104.306;2022-09-01T09:52:11;10.70;;;8.05;;
68140;SDS011;54941;52.220;104.306;2022-09-01T09:54:59;11.13;;;7.15;;
68140;SDS011;54941;52.220;104.306;2022-09-01T09:57:46;11.02;;;7.70;;
68140;SDS011;54941;52.220;104.306;2022-09-01T10:00:32;11.45;;;7.32;;
68140;SDS011;54941;52.220;104.306;2022-09-01T10:03:20;9.85;;;7.15;;
68140;SDS011;54941;52.220;104.306;2022-09-01T10:06:29;9.38;;;6.43;;
68140;SDS011;54941;52.220;104.306;2022-09-01T10:09:16;9.57;;;7.25;;
68140;SDS011;54941;52.220;104.306;2022-09-01T10:12:18;12.32;;;6.80;;
68140;SDS011;54941;52.220;104.306;2022-09-01T10:15:04;11.00;;;6.95;;
68140;SDS011;54941;52.220;104.306;2022-09-01T10:23:22;10.07;;;6.32;;
68140;SDS011;54941;52.220;104.306;2022-09-01T10:26:08;9.98;;;6.10;;
68140;SDS011;54941;52.220;104.306;2022-09-01T10:28:59;9.02;;;6.53;;
68140;SDS011;54941;52.220;104.306;2022-09-01T10:31:49;12.75;;;7.10;;
68140;SDS011;54941;52.220;104.306;2022-09-01T10:37:22;10.65;;;7.07;;
68140;SDS011;54941;52.220;104.306;2022-09-01T10:40:10;10.00;;;7.55;;
68140;SDS011;54941;52.220;104.306;2022-09-01T10:42:59;11.88;;;6.70;;
68140;SDS011;54941;52.220;104.306;2022-09-01T10:52:53;11.00;;;7.05;;
68140;SDS011;54941;52.220;104.306;2022-09-01T10:55:42;13.48;;;9.40;;
68140;SDS011;54941;52.220;104.306;2022-09-01T11:02:03;12.95;;;8.15;;
68140;SDS011;54941;52.220;104.306;2022-09-01T11:05:09;10.73;;;6.80;;
68140;SDS011;54941;52.220;104.306;2022-09-01T11:07:59;14.80;;;8.93;;
68140;SDS011;54941;52.220;104.306;2022-09-01T11:11:25;15.57;;;7.65;;
68140;SDS011;54941;52.220;104.306;2022-09-01T11:14:18;15.05;;;9.20;;
68140;SDS011;54941;52.220;104.306;2022-09-01T11:20:02;12.98;;;8.63;;
68140;SDS011;54941;52.220;104.306;2022-09-01T11:22:57;14.68;;;10.30;;
68140;SDS011;54941;52.220;104.306;2022-09-01T11:25:46;13.82;;;8.50;;
68140;SDS011;54941;52.220;104.306;2022-09-01T11:28:39;16.20;;;9.85;;
68140;SDS011;54941;52.220;104.306;2022-09-01T11:31:27;13.52;;;9.30;;
68140;SDS011;54941;52.220;104.306;2022-09-01T11:34:15;17.83;;;10.30;;
68140;SDS011;54941;52.220;104.306;2022-09-01T11:37:02;16.38;;;11.43;;
68140;SDS011;54941;52.220;104.306;2022-09-01T11:40:00;17.80;;;11.27;;
68140;SDS011;54941;52.220;104.306;2022-09-01T11:42:48;18.30;;;11.70;;
68140;SDS011;54941;52.220;104.306;2022-09-01T11:45:35;20.27;;;11.45;;
68140;SDS011;54941;52.220;104.306;2022-09-01T11:51:12;14.52;;;7.28;;
68140;SDS011;54941;52.220;104.306;2022-09-01T11:53:59;16.20;;;8.55;;
68140;SDS011;54941;52.220;104.306;2022-09-01T11:56:45;13.07;;;8.00;;
68140;SDS011;54941;52.220;104.306;2022-09-01T11:59:33;14.77;;;9.05;;
68140;SDS011;54941;52.220;104.306;2022-09-01T12:02:20;15.80;;;9.02;;
68140;SDS011;54941;52.220;104.306;2022-09-01T12:05:22;18.20;;;9.68;;
68140;SDS011;54941;52.220;104.306;2022-09-01T12:08:12;18.55;;;10.13;;
68140;SDS011;54941;52.220;104.306;2022-09-01T12:11:04;19.80;;;11.60;;
68140;SDS011;54941;52.220;104.306;2022-09-01T12:13:55;26.13;;;13.18;;
68140;SDS011;54941;52.220;104.306;2022-09-01T12:16:42;21.40;;;12.30;;
68140;SDS011;54941;52.220;104.306;2022-09-01T12:19:28;24.63;;;14.52;;
68140;SDS011;54941;52.220;104.306;2022-09-01T12:22:16;21.05;;;13.02;;
68140;SDS011;54941;52.220;104.306;2022-09-01T12:25:02;26.20;;;16.33;;
68140;SDS011;54941;52.220;104.306;2022-09-01T12:27:48;21.77;;;13.23;;
68140;SDS011;54941;52.220;104.306;2022-09-01T12:30:35;23.65;;;13.95;;
68140;SDS011;54941;52.220;104.306;2022-09-01T12:33:20;19.52;;;11.60;;
68140;SDS011;54941;52.220;104.306;2022-09-01T12:36:17;18.88;;;11.13;;
68140;SDS011;54941;52.220;104.306;2022-09-01T12:39:20;21.20;;;12.43;;
68140;SDS011;54941;52.220;104.306;2022-09-01T12:42:08;19.88;;;10.65;;
68140;SDS011;54941;52.220;104.306;2022-09-01T12:44:57;20.67;;;10.50;;
68140;SDS011;54941;52.220;104.306;2022-09-01T12:47:49;16.17;;;10.10;;
68140;SDS011;54941;52.220;104.306;2022-09-01T12:50:41;15.10;;;8.52;;
68140;SDS011;54941;52.220;104.306;2022-09-01T12:53:28;15.18;;;10.20;;
68140;SDS011;54941;52.220;104.306;2022-09-01T12:56:16;14.82;;;9.80;;
68140;SDS011;54941;52.220;104.306;2022-09-01T12:59:06;17.63;;;9.23;;
68140;SDS011;54941;52.220;104.306;2022-09-01T13:01:53;16.38;;;9.98;;
68140;SDS011;54941;52.220;104.306;2022-09-01T13:07:27;16.17;;;8.27;;
68140;SDS011;54941;52.220;104.306;2022-09-01T13:10:12;18.85;;;9.05;;
68140;SDS011;54941;52.220;104.306;2022-09-01T13:13:00;16.02;;;9.32;;
68140;SDS011;54941;52.220;104.306;2022-09-01T13:15:52;16.05;;;9.43;;
68140;SDS011;54941;52.220;104.306;2022-09-01T13:18:39;18.77;;;11.40;;
68140;SDS011;54941;52.220;104.306;2022-09-01T13:21:26;12.82;;;8.45;;
68140;SDS011;54941;52.220;104.306;2022-09-01T13:24:11;17.00;;;9.68;;
68140;SDS011;54941;52.220;104.306;2022-09-01T13:26:59;16.90;;;8.82;;
68140;SDS011;54941;52.220;104.306;2022-09-01T13:29:44;18.73;;;10.55;;
68140;SDS011;54941;52.220;104.306;2022-09-01T13:32:30;21.75;;;11.85;;
68140;SDS011;54941;52.220;104.306;2022-09-01T13:35:15;30.15;;;18.95;;
68140;SDS011;54941;52.220;104.306;2022-09-01T13:40:51;21.80;;;14.05;;
68140;SDS011;54941;52.220;104.306;2022-09-01T13:43:36;37.85;;;23.02;;
68140;SDS011;54941;52.220;104.306;2022-09-01T13:46:21;24.98;;;14.18;;
68140;SDS011;54941;52.220;104.306;2022-09-01T13:49:06;24.05;;;14.43;;
68140;SDS011;54941;52.220;104.306;2022-09-01T13:51:51;20.33;;;13.13;;
68140;SDS011;54941;52.220;104.306;2022-09-01T13:54:38;23.70;;;12.02;;
68140;SDS011;54941;52.220;104.306;2022-09-01T13:57:23;23.15;;;14.00;;
68140;SDS011;54941;52.220;104.306;2022-09-01T14:00:09;18.67;;;11.25;;
68140;SDS011;54941;52.220;104.306;2022-09-01T14:02:57;16.65;;;9.98;;
68140;SDS011;54941;52.220;104.306;2022-09-01T14:05:46;15.77;;;8.88;;
68140;SDS011;54941;52.220;104.306;2022-09-01T14:08:32;17.90;;;9.93;;
68140;SDS011;54941;52.220;104.306;2022-09-01T14:11:19;16.00;;;9.60;;
68140;SDS011;54941;52.220;104.306;2022-09-01T14:14:04;15.18;;;9.85;;
68140;SDS011;54941;52.220;104.306;2022-09-01T14:16:49;18.40;;;8.65;;
68140;SDS011;54941;52.220;104.306;2022-09-01T14:19:34;15.77;;;9.68;;
68140;SDS011;54941;52.220;104.306;2022-09-01T14:22:19;15.90;;;9.70;;
68140;SDS011;54941;52.220;104.306;2022-09-01T14:25:04;14.30;;;8.43;;
68140;SDS011;54941;52.220;104.306;2022-09-01T14:27:54;14.43;;;9.02;;
68140;SDS011;54941;52.220;104.306;2022-09-01T14:30:42;14.82;;;8.43;;
68140;SDS011;54941;52.220;104.306;2022-09-01T14:33:27;15.02;;;8.40;;
68140;SDS011;54941;52.220;104.306;2022-09-01T14:36:16;15.45;;;8.75;;
68140;SDS011;54941;52.220;104.306;2022-09-01T14:39:02;15.68;;;8.52;;
68140;SDS011;54941;52.220;104.306;2022-09-01T14:41:47;15.73;;;8.55;;
68140;SDS011;54941;52.220;104.306;2022-09-01T14:44:36;14.05;;;8.80;;
68140;SDS011;54941;52.220;104.306;2022-09-01T14:47:21;14.43;;;8.10;;
68140;SDS011;54941;52.220;104.306;2022-09-01T14:50:07;14.65;;;8.18;;
68140;SDS011;54941;52.220;104.306;2022-09-01T14:52:54;17.48;;;8.90;;
68140;SDS011;54941;52.220;104.306;2022-09-01T14:55:39;16.35;;;9.23;;
68140;SDS011;54941;52.220;104.306;2022-09-01T14:58:24;18.88;;;9.05;;
68140;SDS011;54941;52.220;104.306;2022-09-01T15:01:12;16.52;;;9.38;;
68140;SDS011;54941;52.220;104.306;2022-09-01T15:03:57;16.23;;;9.15;;
68140;SDS011;54941;52.220;104.306;2022-09-01T15:06:44;15.18;;;8.05;;
68140;SDS011;54941;52.220;104.306;2022-09-01T15:09:29;17.85;;;9.20;;
68140;SDS011;54941;52.220;104.306;2022-09-01T15:12:14;19.55;;;10.43;;
68140;SDS011;54941;52.220;104.306;2022-09-01T15:15:00;16.17;;;9.35;;
68140;SDS011;54941;52.220;104.306;2022-09-01T15:17:49;16.98;;;8.80;;
68140;SDS011;54941;52.220;104.306;2022-09-01T15:20:37;16.10;;;9.07;;
68140;SDS011;54941;52.220;104.306;2022-09-01T15:23:24;17.40;;;9.20;;
68140;SDS011;54941;52.220;104.306;2022-09-01T15:26:09;15.75;;;8.88;;
68140;SDS011;54941;52.220;104.306;2022-09-01T15:28:54;16.75;;;8.68;;
68140;SDS011;54941;52.220;104.306;2022-09-01T15:31:41;14.85;;;9.43;;
68140;SDS011;54941;52.220;104.306;2022-09-01T15:34:28;18.75;;;10.60;;
68140;SDS011;54941;52.220;104.306;2022-09-01T15:37:16;17.95;;;10.70;;
68140;SDS011;54941;52.220;104.306;2022-09-01T15:40:01;17.90;;;9.68;;
68140;SDS011;54941;52.220;104.306;2022-09-01T15:42:47;16.40;;;8.85;;
68140;SDS011;54941;52.220;104.306;2022-09-01T15:45:32;16.88;;;9.07;;
68140;SDS011;54941;52.220;104.306;2022-09-01T15:48:17;16.00;;;8.80;;
68140;SDS011;54941;52.220;104.306;2022-09-01T15:54:12;14.25;;;8.13;;
68140;SDS011;54941;52.220;104.306;2022-09-01T15:56:58;15.45;;;9.63;;
68140;SDS011;54941;52.220;104.306;2022-09-01T15:59:43;19.05;;;9.85;;
68140;SDS011;54941;52.220;104.306;2022-09-01T16:02:28;18.88;;;11.38;;
68140;SDS011;54941;52.220;104.306;2022-09-01T16:05:13;15.77;;;9.00;;
68140;SDS011;54941;52.220;104.306;2022-09-01T16:08:00;18.17;;;8.68;;
68140;SDS011;54941;52.220;104.306;2022-09-01T16:10:47;14.63;;;8.52;;
68140;SDS011;54941;52.220;104.306;2022-09-01T16:13:32;15.65;;;9.23;;
68140;SDS011;54941;52.220;104.306;2022-09-01T16:16:22;17.08;;;9.25;;
68140;SDS011;54941;52.220;104.306;2022-09-01T16:19:17;13.75;;;8.30;;
68140;SDS011;54941;52.220;104.306;2022-09-01T16:22:16;16.55;;;9.98;;
68140;SDS011;54941;52.220;104.306;2022-09-01T16:25:12;14.82;;;9.05;;
68140;SDS011;54941;52.220;104.306;2022-09-01T16:28:09;17.00;;;9.32;;
68140;SDS011;54941;52.220;104.306;2022-09-01T16:31:05;18.05;;;10.38;;
68140;SDS011;54941;52.220;104.306;2022-09-01T16:33:55;15.38;;;9.10;;
68140;SDS011;54941;52.220;104.306;2022-09-01T16:36:44;16.10;;;9.05;;
68140;SDS011;54941;52.220;104.306;2022-09-01T16:39:38;16.52;;;8.77;;
68140;SDS011;54941;52.220;104.306;2022-09-01T16:42:31;16.83;;;9.38;;
68140;SDS011;54941;52.220;104.306;2022-09-01T16:45:26;16.33;;;8.48;;
68140;SDS011;54941;52.220;104.306;2022-09-01T16:48:20;17.48;;;9.63;;